sensor_id;sensor_type;location;lat;lon;timestamp;pressure;altitude;pressure_sealevel;temperature;humidity
58686;BME280;44465;53.206;-6.106;2023-02-16T00:01:34;101197.50;;;20.79;53.82
58686;BME280;44465;53.206;-6.106;2023-02-16T00:04:00;101127.13;;;20.39;54.11
58686;BME280;44465;53.206;-6.106;2023-02-16T00:06:27;101127.19;;;20.37;54.12
58686;BME280;44465;53.206;-6.106;2023-02-16T00:08:54;101149.59;;;20.54;54.01
58686;BME280;44465;53.206;-6.106;2023-02-16T00:11:46;101116.63;;;20.34;53.94
58686;BME280;44465;53.206;-6.106;2023-02-16T00:14:33;101179.03;;;20.73;53.86
58686;BME280;44465;53.206;-6.106;2023-02-16T00:16:59;101185.31;;;20.72;54.10
58686;BME280;44465;53.206;-6.106;2023-02-16T00:19:28;101139.84;;;20.53;53.98
58686;BME280;44465;53.206;-6.106;2023-02-16T00:21:56;101151.47;;;20.52;53.64
58686;BME280;44465;53.206;-6.106;2023-02-16T00:24:24;101133.84;;;20.48;53.86
58686;BME280;44465;53.206;-6.106;2023-02-16T00:26:51;101169.88;;;20.79;53.98
58686;BME280;44465;53.206;-6.106;2023-02-16T00:31:49;101159.59;;;20.69;53.57
58686;BME280;44465;53.206;-6.106;2023-02-16T00:34:39;101140.50;;;20.58;53.94
58686;BME280;44465;53.206;-6.106;2023-02-16T00:37:10;101170.09;;;20.74;54.05
58686;BME280;44465;53.206;-6.106;2023-02-16T00:39:38;101168.38;;;20.71;54.05
58686;BME280;44465;53.206;-6.106;2023-02-16T00:42:09;101162.25;;;20.69;54.10
58686;BME280;44465;53.206;-6.106;2023-02-16T00:44:39;101145.41;;;20.67;54.15
58686;BME280;44465;53.206;-6.106;2023-02-16T00:49:52;101137.66;;;20.61;54.09
58686;BME280;44465;53.206;-6.106;2023-02-16T00:52:32;101135.16;;;20.58;54.18
58686;BME280;44465;53.206;-6.106;2023-02-16T00:54:59;101135.16;;;20.58;54.13
58686;BME280;44465;53.206;-6.106;2023-02-16T00:57:25;101150.25;;;20.59;54.44
58686;BME280;44465;53.206;-6.106;2023-02-16T01:02:32;101144.50;;;20.67;54.12
58686;BME280;44465;53.206;-6.106;2023-02-16T01:04:58;101120.66;;;20.62;54.16
58686;BME280;44465;53.206;-6.106;2023-02-16T01:07:23;101133.81;;;20.67;54.26
58686;BME280;44465;53.206;-6.106;2023-02-16T01:10:09;101124.28;;;20.61;54.53
58686;BME280;44465;53.206;-6.106;2023-02-16T01:12:53;101096.09;;;20.54;54.14
58686;BME280;44465;53.206;-6.106;2023-02-16T01:15:21;101060.63;;;20.31;54.16
58686;BME280;44465;53.206;-6.106;2023-02-16T01:17:48;101045.69;;;20.27;54.09
58686;BME280;44465;53.206;-6.106;2023-02-16T01:20:24;101072.69;;;20.40;54.30
58686;BME280;44465;53.206;-6.106;2023-02-16T01:22:50;101072.56;;;20.43;54.09
58686;BME280;44465;53.206;-6.106;2023-02-16T01:25:16;101103.03;;;20.58;54.20
58686;BME280;44465;53.206;-6.106;2023-02-16T01:27:42;101110.13;;;20.59;54.20
58686;BME280;44465;53.206;-6.106;2023-02-16T01:30:14;101099.84;;;20.50;54.13
58686;BME280;44465;53.206;-6.106;2023-02-16T01:32:42;101110.25;;;20.56;54.33
58686;BME280;44465;53.206;-6.106;2023-02-16T01:35:12;101071.16;;;20.34;54.40
58686;BME280;44465;53.206;-6.106;2023-02-16T01:37:37;101057.13;;;20.29;54.45
58686;BME280;44465;53.206;-6.106;2023-02-16T01:40:03;101084.09;;;20.43;54.38
58686;BME280;44465;53.206;-6.106;2023-02-16T01:42:34;101094.25;;;20.54;54.38
58686;BME280;44465;53.206;-6.106;2023-02-16T01:45:10;101105.72;;;20.58;54.30
58686;BME280;44465;53.206;-6.106;2023-02-16T01:50:24;101035.13;;;20.24;54.10
58686;BME280;44465;53.206;-6.106;2023-02-16T01:53:02;101111.69;;;20.63;54.24
58686;BME280;44465;53.206;-6.106;2023-02-16T01:55:36;101072.69;;;20.40;54.19
58686;BME280;44465;53.206;-6.106;2023-02-16T01:58:12;101117.03;;;20.63;54.20
58686;BME280;44465;53.206;-6.106;2023-02-16T02:03:27;101070.50;;;20.29;54.41
58686;BME280;44465;53.206;-6.106;2023-02-16T02:06:15;101058.38;;;20.22;54.17
58686;BME280;44465;53.206;-6.106;2023-02-16T02:14:23;101049.78;;;20.15;54.41
58686;BME280;44465;53.206;-6.106;2023-02-16T02:17:00;101079.91;;;20.38;54.42
58686;BME280;44465;53.206;-6.106;2023-02-16T02:19:31;101063.00;;;20.37;54.53
58686;BME280;44465;53.206;-6.106;2023-02-16T02:30:40;101097.69;;;20.58;54.34
58686;BME280;44465;53.206;-6.106;2023-02-16T02:33:30;101033.81;;;20.13;54.43
58686;BME280;44465;53.206;-6.106;2023-02-16T02:36:20;101039.81;;;20.19;54.34
58686;BME280;44465;53.206;-6.106;2023-02-16T02:44:36;101043.72;;;20.30;54.77
58686;BME280;44465;53.206;-6.106;2023-02-16T02:47:04;101045.28;;;20.35;54.82
58686;BME280;44465;53.206;-6.106;2023-02-16T02:49:29;101017.19;;;20.26;54.58
58686;BME280;44465;53.206;-6.106;2023-02-16T02:51:55;101031.19;;;20.31;54.85
58686;BME280;44465;53.206;-6.106;2023-02-16T02:54:25;101075.47;;;20.56;54.61
58686;BME280;44465;53.206;-6.106;2023-02-16T03:00:23;101047.94;;;20.35;54.59
58686;BME280;44465;53.206;-6.106;2023-02-16T03:03:17;101062.00;;;20.40;54.62
58686;BME280;44465;53.206;-6.106;2023-02-16T03:05:51;101080.88;;;20.54;54.43
58686;BME280;44465;53.206;-6.106;2023-02-16T03:08:23;101047.94;;;20.35;54.80
58686;BME280;44465;53.206;-6.106;2023-02-16T03:11:22;101071.75;;;20.41;54.72
58686;BME280;44465;53.206;-6.106;2023-02-16T03:14:21;101092.63;;;20.52;54.65
58686;BME280;44465;53.206;-6.106;2023-02-16T03:17:00;101066.97;;;20.28;54.69
58686;BME280;44465;53.206;-6.106;2023-02-16T03:19:47;101070.94;;;20.20;54.76
58686;BME280;44465;53.206;-6.106;2023-02-16T03:22:32;101108.25;;;20.42;54.85
58686;BME280;44465;53.206;-6.106;2023-02-16T03:25:17;101069.06;;;20.22;54.71
58686;BME280;44465;53.206;-6.106;2023-02-16T03:28:03;101099.44;;;20.40;54.86
58686;BME280;44465;53.206;-6.106;2023-02-16T03:30:50;101115.13;;;20.48;54.82
58686;BME280;44465;53.206;-6.106;2023-02-16T03:33:17;101066.28;;;20.25;54.51
58686;BME280;44465;53.206;-6.106;2023-02-16T03:35:44;101079.41;;;20.29;55.01
58686;BME280;44465;53.206;-6.106;2023-02-16T03:38:10;101057.22;;;20.08;54.82
58686;BME280;44465;53.206;-6.106;2023-02-16T03:40:36;101114.75;;;20.36;54.79
58686;BME280;44465;53.206;-6.106;2023-02-16T03:43:06;101130.25;;;20.49;54.95
58686;BME280;44465;53.206;-6.106;2023-02-16T03:45:33;101129.72;;;20.40;54.89
58686;BME280;44465;53.206;-6.106;2023-02-16T03:47:59;101055.69;;;20.03;54.63
58686;BME280;44465;53.206;-6.106;2023-02-16T03:50:24;101051.97;;;20.07;54.88
58686;BME280;44465;53.206;-6.106;2023-02-16T03:52:52;101053.63;;;20.09;54.92
58686;BME280;44465;53.206;-6.106;2023-02-16T03:55:18;101075.31;;;20.22;54.78
58686;BME280;44465;53.206;-6.106;2023-02-16T03:57:43;101045.44;;;20.12;54.86
58686;BME280;44465;53.206;-6.106;2023-02-16T04:00:09;101085.25;;;20.38;54.96
58686;BME280;44465;53.206;-6.106;2023-02-16T04:02:42;101089.53;;;20.42;54.80
58686;BME280;44465;53.206;-6.106;2023-02-16T04:05:07;101045.44;;;20.12;54.95
58686;BME280;44465;53.206;-6.106;2023-02-16T04:07:33;101049.88;;;20.13;54.83
58686;BME280;44465;53.206;-6.106;2023-02-16T04:09:58;101091.31;;;20.41;54.86
58686;BME280;44465;53.206;-6.106;2023-02-16T04:12:24;101064.63;;;20.22;55.09
58686;BME280;44465;53.206;-6.106;2023-02-16T04:15:10;101056.66;;;20.21;54.95
58686;BME280;44465;53.206;-6.106;2023-02-16T04:17:36;101038.50;;;20.08;54.77
58686;BME280;44465;53.206;-6.106;2023-02-16T04:20:02;101056.66;;;20.21;54.94
58686;BME280;44465;53.206;-6.106;2023-02-16T04:22:28;101051.75;;;20.11;54.68
58686;BME280;44465;53.206;-6.106;2023-02-16T04:24:53;101042.88;;;20.11;54.75
58686;BME280;44465;53.206;-6.106;2023-02-16T04:27:19;101042.16;;;20.07;54.75
58686;BME280;44465;53.206;-6.106;2023-02-16T04:29:45;101079.81;;;20.39;54.82
58686;BME280;44465;53.206;-6.106;2023-02-16T04:32:10;101100.16;;;20.43;55.02
58686;BME280;44465;53.206;-6.106;2023-02-16T04:34:36;101055.06;;;20.17;54.79
58686;BME280;44465;53.206;-6.106;2023-02-16T04:37:01;101043.09;;;20.06;55.06
58686;BME280;44465;53.206;-6.106;2023-02-16T04:39:27;101084.53;;;20.34;54.90
58686;BME280;44465;53.206;-6.106;2023-02-16T04:41:53;101055.34;;;20.10;55.06
58686;BME280;44465;53.206;-6.106;2023-02-16T04:44:18;101056.06;;;20.14;54.94
58686;BME280;44465;53.206;-6.106;2023-02-16T04:46:43;101104.66;;;20.43;55.10
58686;BME280;44465;53.206;-6.106;2023-02-16T04:49:09;101039.63;;;20.04;55.24
58686;BME280;44465;53.206;-6.106;2023-02-16T04:51:35;101067.28;;;20.22;55.03
58686;BME280;44465;53.206;-6.106;2023-02-16T04:54:00;101087.34;;;20.31;55.09
58686;BME280;44465;53.206;-6.106;2023-02-16T04:56:26;101057.44;;;20.04;54.69
58686;BME280;44465;53.206;-6.106;2023-02-16T04:58:52;101057.44;;;20.04;55.04
58686;BME280;44465;53.206;-6.106;2023-02-16T05:01:24;101088.47;;;20.27;54.97
58686;BME280;44465;53.206;-6.106;2023-02-16T05:03:51;101072.91;;;20.16;54.82
58686;BME280;44465;53.206;-6.106;2023-02-16T05:06:17;101058.31;;;20.04;55.00
58686;BME280;44465;53.206;-6.106;2023-02-16T05:08:43;101132.13;;;20.46;54.84
58686;BME280;44465;53.206;-6.106;2023-02-16T05:11:08;101081.81;;;20.17;54.82
58686;BME280;44465;53.206;-6.106;2023-02-16T05:13:55;101069.66;;;20.09;54.89
58686;BME280;44465;53.206;-6.106;2023-02-16T05:16:39;101082.09;;;20.10;55.24
58686;BME280;44465;53.206;-6.106;2023-02-16T05:19:05;101073.13;;;20.11;54.96
58686;BME280;44465;53.206;-6.106;2023-02-16T05:21:31;101100.38;;;20.20;54.80
58686;BME280;44465;53.206;-6.106;2023-02-16T05:23:57;101096.13;;;20.15;54.62
58686;BME280;44465;53.206;-6.106;2023-02-16T05:26:23;101138.75;;;20.38;54.95
58686;BME280;44465;53.206;-6.106;2023-02-16T05:28:49;101120.56;;;20.27;54.90
58686;BME280;44465;53.206;-6.106;2023-02-16T05:31:14;101135.00;;;20.42;54.76
58686;BME280;44465;53.206;-6.106;2023-02-16T05:33:40;101063.81;;;20.01;54.75
58686;BME280;44465;53.206;-6.106;2023-02-16T05:36:05;101055.06;;;19.97;54.98
58686;BME280;44465;53.206;-6.106;2023-02-16T05:38:31;101099.22;;;20.25;54.76
58686;BME280;44465;53.206;-6.106;2023-02-16T05:40:58;101084.53;;;20.15;54.75
58686;BME280;44465;53.206;-6.106;2023-02-16T05:43:24;101134.22;;;20.40;54.95
58686;BME280;44465;53.206;-6.106;2023-02-16T05:45:49;101075.44;;;20.00;54.62
58686;BME280;44465;53.206;-6.106;2023-02-16T05:48:15;101148.31;;;20.43;55.02
58686;BME280;44465;53.206;-6.106;2023-02-16T05:50:40;101090.41;;;20.04;55.03
58686;BME280;44465;53.206;-6.106;2023-02-16T05:53:06;101112.38;;;20.11;55.19
58686;BME280;44465;53.206;-6.106;2023-02-16T05:55:32;101159.94;;;20.42;54.88
58686;BME280;44465;53.206;-6.106;2023-02-16T05:57:57;101121.13;;;20.14;54.95
58686;BME280;44465;53.206;-6.106;2023-02-16T06:00:23;101107.50;;;20.00;55.00
58686;BME280;44465;53.206;-6.106;2023-02-16T06:02:48;101169.84;;;20.40;54.82
58686;BME280;44465;53.206;-6.106;2023-02-16T06:05:14;101129.16;;;20.14;54.79
58686;BME280;44465;53.206;-6.106;2023-02-16T06:07:39;101126.91;;;20.05;54.96
58686;BME280;44465;53.206;-6.106;2023-02-16T06:10:06;101147.84;;;20.14;54.82
58686;BME280;44465;53.206;-6.106;2023-02-16T06:12:31;101166.22;;;20.22;54.74
58686;BME280;44465;53.206;-6.106;2023-02-16T06:15:02;101125.50;;;19.96;54.84
58686;BME280;44465;53.206;-6.106;2023-02-16T06:17:27;101173.50;;;20.19;54.91
58686;BME280;44465;53.206;-6.106;2023-02-16T06:19:53;101142.47;;;19.95;54.89
58686;BME280;44465;53.206;-6.106;2023-02-16T06:22:19;101184.19;;;20.19;54.95
58686;BME280;44465;53.206;-6.106;2023-02-16T06:24:45;101207.59;;;20.34;54.80
58686;BME280;44465;53.206;-6.106;2023-02-16T06:27:10;101215.38;;;20.39;54.79
58686;BME280;44465;53.206;-6.106;2023-02-16T06:29:36;101148.41;;;20.02;54.71
58686;BME280;44465;53.206;-6.106;2023-02-16T06:32:02;101178.28;;;20.12;54.75
58686;BME280;44465;53.206;-6.106;2023-02-16T06:34:27;101199.84;;;20.28;54.97
58686;BME280;44465;53.206;-6.106;2023-02-16T06:36:53;101165.31;;;20.03;54.61
58686;BME280;44465;53.206;-6.106;2023-02-16T06:39:18;101202.34;;;20.31;55.02
58686;BME280;44465;53.206;-6.106;2023-02-16T06:41:44;101150.56;;;19.94;54.73
58686;BME280;44465;53.206;-6.106;2023-02-16T06:44:12;101177.81;;;20.02;54.98
58686;BME280;44465;53.206;-6.106;2023-02-16T06:46:43;101199.31;;;20.20;54.83
58686;BME280;44465;53.206;-6.106;2023-02-16T06:49:14;101172.13;;;20.10;54.77
58686;BME280;44465;53.206;-6.106;2023-02-16T06:51:40;101189.50;;;20.20;55.13
58686;BME280;44465;53.206;-6.106;2023-02-16T06:54:05;101157.72;;;19.93;54.77
58686;BME280;44465;53.206;-6.106;2023-02-16T06:56:31;101178.88;;;19.98;54.89
58686;BME280;44465;53.206;-6.106;2023-02-16T06:58:57;101197.22;;;20.07;55.02
58686;BME280;44465;53.206;-6.106;2023-02-16T07:01:22;101193.22;;;19.97;54.88
58686;BME280;44465;53.206;-6.106;2023-02-16T07:03:54;101211.31;;;20.11;55.07
58686;BME280;44465;53.206;-6.106;2023-02-16T07:06:21;101237.22;;;20.29;54.98
58686;BME280;44465;53.206;-6.106;2023-02-16T07:08:47;101213.78;;;20.15;54.97
58686;BME280;44465;53.206;-6.106;2023-02-16T07:11:13;101235.38;;;20.30;54.60
58686;BME280;44465;53.206;-6.106;2023-02-16T07:13:39;101239.06;;;20.27;55.01
58686;BME280;44465;53.206;-6.106;2023-02-16T07:16:05;101241.69;;;20.29;54.59
58686;BME280;44465;53.206;-6.106;2023-02-16T07:18:31;101228.81;;;20.18;54.88
58686;BME280;44465;53.206;-6.106;2023-02-16T07:20:57;101248.03;;;20.26;54.99
58686;BME280;44465;53.206;-6.106;2023-02-16T07:23:23;101215.16;;;20.04;54.83
58686;BME280;44465;53.206;-6.106;2023-02-16T07:25:49;101196.00;;;19.94;54.59
58686;BME280;44465;53.206;-6.106;2023-02-16T07:28:14;101254.13;;;20.30;54.92
58686;BME280;44465;53.206;-6.106;2023-02-16T07:30:40;101218.44;;;20.10;54.89
58686;BME280;44465;53.206;-6.106;2023-02-16T07:33:06;101217.63;;;20.08;54.81
58686;BME280;44465;53.206;-6.106;2023-02-16T07:35:33;101193.47;;;19.91;55.01
58686;BME280;44465;53.206;-6.106;2023-02-16T07:37:59;101201.41;;;19.92;54.84
58686;BME280;44465;53.206;-6.106;2023-02-16T07:40:25;101198.94;;;19.88;54.85
58686;BME280;44465;53.206;-6.106;2023-02-16T07:42:50;101193.59;;;19.88;54.60
58686;BME280;44465;53.206;-6.106;2023-02-16T07:45:16;101203.31;;;19.90;54.95
58686;BME280;44465;53.206;-6.106;2023-02-16T07:47:41;101226.63;;;20.07;54.91
58686;BME280;44465;53.206;-6.106;2023-02-16T07:50:07;101222.25;;;20.05;55.01
58686;BME280;44465;53.206;-6.106;2023-02-16T07:52:33;101224.81;;;20.08;54.84
58686;BME280;44465;53.206;-6.106;2023-02-16T07:54:59;101256.13;;;20.25;54.68
58686;BME280;44465;53.206;-6.106;2023-02-16T07:57:25;101204.28;;;19.88;54.84
58686;BME280;44465;53.206;-6.106;2023-02-16T07:59:51;101240.34;;;20.19;54.50
58686;BME280;44465;53.206;-6.106;2023-02-16T08:02:17;101243.53;;;20.08;54.67
58686;BME280;44465;53.206;-6.106;2023-02-16T08:04:44;101279.28;;;20.26;54.75
58686;BME280;44465;53.206;-6.106;2023-02-16T08:07:12;101233.97;;;20.02;54.59
58686;BME280;44465;53.206;-6.106;2023-02-16T08:09:37;101269.75;;;20.19;54.77
58686;BME280;44465;53.206;-6.106;2023-02-16T08:12:04;101245.78;;;19.96;54.86
58686;BME280;44465;53.206;-6.106;2023-02-16T08:14:29;101286.91;;;20.14;54.82
58686;BME280;44465;53.206;-6.106;2023-02-16T08:16:55;101264.31;;;20.01;54.71
58686;BME280;44465;53.206;-6.106;2023-02-16T08:19:20;101247.28;;;19.81;55.04
58686;BME280;44465;53.206;-6.106;2023-02-16T08:21:45;101310.22;;;20.11;54.98
58686;BME280;44465;53.206;-6.106;2023-02-16T08:24:13;101348.19;;;20.19;54.99
58686;BME280;44465;53.206;-6.106;2023-02-16T08:26:40;101298.13;;;20.02;54.78
58686;BME280;44465;53.206;-6.106;2023-02-16T08:29:08;101306.16;;;20.02;54.70
58686;BME280;44465;53.206;-6.106;2023-02-16T08:31:35;101315.00;;;20.03;54.71
58686;BME280;44465;53.206;-6.106;2023-02-16T08:34:02;101364.31;;;20.18;54.84
58686;BME280;44465;53.206;-6.106;2023-02-16T08:36:33;101337.28;;;20.03;54.87
58686;BME280;44465;53.206;-6.106;2023-02-16T08:39:03;101342.56;;;20.05;54.63
58686;BME280;44465;53.206;-6.106;2023-02-16T08:41:34;101347.19;;;20.01;54.68
58686;BME280;44465;53.206;-6.106;2023-02-16T08:44:00;101386.38;;;20.23;54.70
58686;BME280;44465;53.206;-6.106;2023-02-16T08:46:27;101388.25;;;20.21;54.59
58686;BME280;44465;53.206;-6.106;2023-02-16T08:48:56;101339.81;;;19.86;54.92
58686;BME280;44465;53.206;-6.106;2023-02-16T08:51:25;101396.25;;;20.21;54.84
58686;BME280;44465;53.206;-6.106;2023-02-16T08:53:51;101382.22;;;20.15;54.79
58686;BME280;44465;53.206;-6.106;2023-02-16T08:56:17;101336.22;;;19.87;54.58
58686;BME280;44465;53.206;-6.106;2023-02-16T08:58:45;101322.84;;;19.87;54.72
58686;BME280;44465;53.206;-6.106;2023-02-16T09:01:12;101349.66;;;20.06;54.70
58686;BME280;44465;53.206;-6.106;2023-02-16T09:03:41;101398.69;;;20.27;54.88
58686;BME280;44465;53.206;-6.106;2023-02-16T09:06:07;101392.78;;;20.19;54.97
58686;BME280;44465;53.206;-6.106;2023-02-16T09:08:33;101329.06;;;19.87;54.71
58686;BME280;44465;53.206;-6.106;2023-02-16T09:11:03;101374.13;;;20.17;54.78
58686;BME280;44465;53.206;-6.106;2023-02-16T09:13:29;101321.88;;;19.88;55.01
58686;BME280;44465;53.206;-6.106;2023-02-16T09:15:59;101404.03;;;20.27;54.73
58686;BME280;44465;53.206;-6.106;2023-02-16T09:18:25;101342.41;;;19.87;54.48
58686;BME280;44465;53.206;-6.106;2023-02-16T09:20:50;101352.09;;;19.90;54.79
58686;BME280;44465;53.206;-6.106;2023-02-16T09:23:16;101348.38;;;19.94;54.75
58686;BME280;44465;53.206;-6.106;2023-02-16T09:25:41;101379.81;;;20.09;54.47
58686;BME280;44465;53.206;-6.106;2023-02-16T09:28:09;101343.22;;;19.89;54.76
58686;BME280;44465;53.206;-6.106;2023-02-16T09:30:36;101362.41;;;19.99;54.55
58686;BME280;44465;53.206;-6.106;2023-02-16T09:33:02;101392.94;;;20.15;54.90
58686;BME280;44465;53.206;-6.106;2023-02-16T09:35:28;101421.03;;;20.26;54.70
58686;BME280;44465;53.206;-6.106;2023-02-16T09:37:54;101368.09;;;19.91;54.58
58686;BME280;44465;53.206;-6.106;2023-02-16T09:40:19;101375.00;;;19.97;54.81
58686;BME280;44465;53.206;-6.106;2023-02-16T09:42:58;101371.75;;;19.89;54.55
58686;BME280;44465;53.206;-6.106;2023-02-16T09:45:27;101364.72;;;19.86;54.71
58686;BME280;44465;53.206;-6.106;2023-02-16T09:47:55;101365.53;;;19.88;54.85
58686;BME280;44465;53.206;-6.106;2023-02-16T09:50:26;101356.59;;;19.89;54.78
58686;BME280;44465;53.206;-6.106;2023-02-16T09:53:17;101380.06;;;20.03;54.49
58686;BME280;44465;53.206;-6.106;2023-02-16T09:55:55;101369.88;;;19.91;54.76
58686;BME280;44465;53.206;-6.106;2023-02-16T09:58:29;101416.84;;;20.19;54.67
58686;BME280;44465;53.206;-6.106;2023-02-16T10:01:06;101451.09;;;20.31;54.60
58686;BME280;44465;53.206;-6.106;2023-02-16T10:03:59;101463.63;;;20.30;54.70
58686;BME280;44465;53.206;-6.106;2023-02-16T10:09:12;101435.03;;;20.10;54.73
58686;BME280;44465;53.206;-6.106;2023-02-16T10:11:42;101479.59;;;20.32;54.72
58686;BME280;44465;53.206;-6.106;2023-02-16T10:14:42;101474.25;;;20.32;54.58
58686;BME280;44465;53.206;-6.106;2023-02-16T10:17:18;101484.41;;;20.24;54.02
58686;BME280;44465;53.206;-6.106;2023-02-16T10:22:42;101486.75;;;20.09;54.73
58686;BME280;44465;53.206;-6.106;2023-02-16T10:25:31;101486.91;;;20.06;54.49
58686;BME280;44465;53.206;-6.106;2023-02-16T10:28:18;101529.41;;;20.35;54.77
58686;BME280;44465;53.206;-6.106;2023-02-16T10:30:56;101526.81;;;20.33;54.77
58686;BME280;44465;53.206;-6.106;2023-02-16T10:33:51;101529.19;;;20.41;54.61
58686;BME280;44465;53.206;-6.106;2023-02-16T10:36:31;101462.03;;;20.04;54.45
58686;BME280;44465;53.206;-6.106;2023-02-16T10:41:46;101456.91;;;19.98;54.68
58686;BME280;44465;53.206;-6.106;2023-02-16T10:44:25;101515.84;;;20.39;54.42
58686;BME280;44465;53.206;-6.106;2023-02-16T10:46:59;101478.34;;;20.19;54.36
58686;BME280;44465;53.206;-6.106;2023-02-16T10:49:29;101437.16;;;20.02;54.74
58686;BME280;44465;53.206;-6.106;2023-02-16T10:51:55;101456.75;;;20.23;54.56
58686;BME280;44465;53.206;-6.106;2023-02-16T10:54:30;101477.94;;;20.29;54.85
58686;BME280;44465;53.206;-6.106;2023-02-16T10:59:29;101508.50;;;20.44;54.82
58686;BME280;44465;53.206;-6.106;2023-02-16T11:01:57;101454.94;;;20.03;54.47
58686;BME280;44465;53.206;-6.106;2023-02-16T11:04:37;101512.63;;;20.53;54.49
58686;BME280;44465;53.206;-6.106;2023-02-16T11:07:17;101456.66;;;20.04;54.28
58686;BME280;44465;53.206;-6.106;2023-02-16T11:09:45;101458.03;;;20.14;54.39
58686;BME280;44465;53.206;-6.106;2023-02-16T11:12:22;101447.06;;;20.21;54.72
58686;BME280;44465;53.206;-6.106;2023-02-16T11:14:51;101445.13;;;20.24;54.29
58686;BME280;44465;53.206;-6.106;2023-02-16T11:17:19;101433.16;;;20.12;54.33
58686;BME280;44465;53.206;-6.106;2023-02-16T11:19:55;101490.78;;;20.42;54.58
58686;BME280;44465;53.206;-6.106;2023-02-16T11:22:35;101480.72;;;20.49;54.23
58686;BME280;44465;53.206;-6.106;2023-02-16T11:27:55;101492.19;;;20.51;54.38
58686;BME280;44465;53.206;-6.106;2023-02-16T11:30:41;101498.34;;;20.53;54.17
58686;BME280;44465;53.206;-6.106;2023-02-16T11:33:25;101453.94;;;20.28;54.09
58686;BME280;44465;53.206;-6.106;2023-02-16T11:35:52;101439.19;;;20.18;53.99
58686;BME280;44465;53.206;-6.106;2023-02-16T11:38:25;101482.63;;;20.45;54.07
58686;BME280;44465;53.206;-6.106;2023-02-16T11:40:52;101480.94;;;20.42;54.15
58686;BME280;44465;53.206;-6.106;2023-02-16T11:43:18;101494.66;;;20.55;54.15
58686;BME280;44465;53.206;-6.106;2023-02-16T11:46:17;101501.78;;;20.56;53.99
58686;BME280;44465;53.206;-6.106;2023-02-16T11:48:42;101484.16;;;20.51;54.00
58686;BME280;44465;53.206;-6.106;2023-02-16T11:51:10;101481.22;;;20.36;53.30
58686;BME280;44465;53.206;-6.106;2023-02-16T11:53:38;101512.75;;;20.50;53.63
58686;BME280;44465;53.206;-6.106;2023-02-16T11:56:22;101533.13;;;20.53;54.00
58686;BME280;44465;53.206;-6.106;2023-02-16T11:59:05;101533.22;;;20.51;54.16
58686;BME280;44465;53.206;-6.106;2023-02-16T12:10:30;101492.03;;;20.33;54.15
58686;BME280;44465;53.206;-6.106;2023-02-16T12:15:45;101489.97;;;20.40;54.16
58686;BME280;44465;53.206;-6.106;2023-02-16T12:37:22;101489.41;;;20.54;54.10
58686;BME280;44465;53.206;-6.106;2023-02-16T12:45:54;101494.22;;;20.45;54.19
58686;BME280;44465;53.206;-6.106;2023-02-16T12:48:52;101503.59;;;20.56;54.09
58686;BME280;44465;53.206;-6.106;2023-02-16T12:51:35;101506.16;;;20.59;54.09
58686;BME280;44465;53.206;-6.106;2023-02-16T12:56:51;101451.06;;;20.33;53.74
58686;BME280;44465;53.206;-6.106;2023-02-16T12:59:29;101509.28;;;20.69;53.76
58686;BME280;44465;53.206;-6.106;2023-02-16T13:01:59;101484.03;;;20.54;53.68
58686;BME280;44465;53.206;-6.106;2023-02-16T13:04:43;101493.53;;;20.61;53.65
58686;BME280;44465;53.206;-6.106;2023-02-16T13:10:03;101517.44;;;20.66;53.45
58686;BME280;44465;53.206;-6.106;2023-02-16T13:15:12;101468.91;;;20.53;53.63
58686;BME280;44465;53.206;-6.106;2023-02-16T13:17:43;101474.97;;;20.58;53.67
58686;BME280;44465;53.206;-6.106;2023-02-16T13:20:18;101491.44;;;20.69;53.77
58686;BME280;44465;53.206;-6.106;2023-02-16T13:25:52;101506.84;;;20.85;53.63
58686;BME280;44465;53.206;-6.106;2023-02-16T13:36:31;101484.63;;;20.83;53.84
58686;BME280;44465;53.206;-6.106;2023-02-16T13:39:22;101481.91;;;20.84;54.08
58686;BME280;44465;53.206;-6.106;2023-02-16T13:45:20;101472.06;;;20.85;54.40
58686;BME280;44465;53.206;-6.106;2023-02-16T13:47:47;101471.00;;;20.89;54.54
58686;BME280;44465;53.206;-6.106;2023-02-16T13:52:45;101454.97;;;20.87;54.60
58686;BME280;44465;53.206;-6.106;2023-02-16T13:55:30;101472.44;;;20.96;54.35
58686;BME280;44465;53.206;-6.106;2023-02-16T13:58:26;101483.25;;;20.95;54.39
58686;BME280;44465;53.206;-6.106;2023-02-16T14:00:52;101439.28;;;20.80;54.27
58686;BME280;44465;53.206;-6.106;2023-02-16T14:05:49;101401.91;;;20.56;54.47
58686;BME280;44465;53.206;-6.106;2023-02-16T14:08:24;101429.63;;;20.75;54.35
58686;BME280;44465;53.206;-6.106;2023-02-16T14:13:16;101435.59;;;20.82;54.40
58686;BME280;44465;53.206;-6.106;2023-02-16T14:21:25;101359.31;;;20.51;54.22
58686;BME280;44465;53.206;-6.106;2023-02-16T14:23:56;101365.50;;;20.52;54.32
58686;BME280;44465;53.206;-6.106;2023-02-16T14:26:22;101373.06;;;20.63;54.24
58686;BME280;44465;53.206;-6.106;2023-02-16T14:28:57;101420.16;;;20.87;54.32
58686;BME280;44465;53.206;-6.106;2023-02-16T14:31:26;101409.66;;;20.83;54.13
58686;BME280;44465;53.206;-6.106;2023-02-16T14:34:03;101400.91;;;20.79;54.16
58686;BME280;44465;53.206;-6.106;2023-02-16T14:36:30;101360.03;;;20.55;54.26
58686;BME280;44465;53.206;-6.106;2023-02-16T14:38:57;101355.50;;;20.57;54.20
58686;BME280;44465;53.206;-6.106;2023-02-16T14:41:32;101395.47;;;20.81;54.29
58686;BME280;44465;53.206;-6.106;2023-02-16T14:57:46;101398.97;;;20.83;54.38
58686;BME280;44465;53.206;-6.106;2023-02-16T15:00:18;101383.59;;;20.88;54.39
58686;BME280;44465;53.206;-6.106;2023-02-16T15:03:02;101370.44;;;20.82;54.01
58686;BME280;44465;53.206;-6.106;2023-02-16T15:05:31;101345.22;;;20.67;54.20
58686;BME280;44465;53.206;-6.106;2023-02-16T15:08:08;101323.59;;;20.52;53.73
58686;BME280;44465;53.206;-6.106;2023-02-16T15:10:38;101347.78;;;20.70;53.79
58686;BME280;44465;53.206;-6.106;2023-02-16T15:13:04;101374.88;;;20.83;53.92
58686;BME280;44465;53.206;-6.106;2023-02-16T15:18:02;101332.00;;;20.64;54.15